createdAt,value
2019-06-26T00:01:45.716Z,22.40
2019-06-26T00:04:14.437Z,22.40
2019-06-26T00:06:43.743Z,22.30
2019-06-26T00:09:12.924Z,22.20
2019-06-26T00:11:41.727Z,22.20
2019-06-26T00:14:10.395Z,22.20
2019-06-26T00:16:39.522Z,22.20
2019-06-26T00:19:08.197Z,22.10
2019-06-26T00:21:37.259Z,22.10
2019-06-26T00:24:05.911Z,22.10
2019-06-26T00:26:35.160Z,22.10
2019-06-26T00:29:04.139Z,22.10
2019-06-26T00:31:32.795Z,22.10
2019-06-26T00:34:01.826Z,22.00
2019-06-26T00:36:30.464Z,22.00
2019-06-26T00:38:59.387Z,21.90
2019-06-26T00:41:28.117Z,21.90
2019-06-26T00:43:56.915Z,21.80
2019-06-26T00:46:25.655Z,21.80
2019-06-26T00:48:54.694Z,21.70
2019-06-26T00:51:23.350Z,21.70
2019-06-26T00:53:52.396Z,21.70
2019-06-26T00:56:21.061Z,21.70
2019-06-26T00:58:49.748Z,21.70
2019-06-26T01:01:18.484Z,21.70
2019-06-26T01:03:49.543Z,21.60
2019-06-26T01:06:36.006Z,21.60
2019-06-26T01:09:06.459Z,21.60
2019-06-26T01:11:35.683Z,21.60
2019-06-26T01:14:04.528Z,21.60
2019-06-26T01:16:33.874Z,21.60
2019-06-26T01:19:02.781Z,21.50
2019-06-26T01:21:31.503Z,21.60
2019-06-26T01:24:00.204Z,21.60
2019-06-26T01:26:28.923Z,21.60
2019-06-26T01:28:57.915Z,21.60
2019-06-26T01:31:26.916Z,21.50
2019-06-26T01:33:56.215Z,21.50
2019-06-26T01:36:24.849Z,21.40
2019-06-26T01:38:53.815Z,21.50
2019-06-26T01:41:22.946Z,21.50
2019-06-26T01:43:51.974Z,21.50
2019-06-26T01:46:20.611Z,21.60
2019-06-26T01:48:49.590Z,21.60
2019-06-26T01:51:18.383Z,21.70
2019-06-26T01:53:47.655Z,21.70
2019-06-26T01:56:16.344Z,21.60
2019-06-26T01:58:45.070Z,21.60
2019-06-26T02:01:14.227Z,21.50
2019-06-26T02:03:43.088Z,21.50
2019-06-26T02:06:11.768Z,21.40
2019-06-26T02:08:41.012Z,21.40
2019-06-26T02:11:09.983Z,21.40
2019-06-26T02:13:39.223Z,21.40
2019-06-26T02:16:07.975Z,21.30
2019-06-26T02:18:47.317Z,21.20
2019-06-26T02:21:16.240Z,21.20
2019-06-26T02:23:44.926Z,21.20
2019-06-26T02:26:13.594Z,21.10
2019-06-26T02:28:42.336Z,21.10
2019-06-26T02:31:11.401Z,21.00
2019-06-26T02:33:40.371Z,21.10
2019-06-26T02:36:09.035Z,21.00
2019-06-26T02:38:37.994Z,21.00
2019-06-26T02:41:06.923Z,21.00
2019-06-26T02:43:36.032Z,21.00
2019-06-26T02:46:04.868Z,21.00
2019-06-26T02:48:33.566Z,21.00
2019-06-26T02:51:02.259Z,21.00
2019-06-26T02:53:31.017Z,21.00
2019-06-26T02:55:59.939Z,20.90
2019-06-26T02:58:28.680Z,21.00
2019-06-26T03:00:57.357Z,21.00
2019-06-26T03:03:26.068Z,21.10
2019-06-26T03:05:54.729Z,21.10
2019-06-26T03:08:23.722Z,21.10
2019-06-26T03:10:52.760Z,21.20
2019-06-26T03:13:21.477Z,21.30
2019-06-26T03:15:50.834Z,21.40
2019-06-26T03:18:19.722Z,21.50
2019-06-26T03:20:51.789Z,21.60
2019-06-26T03:23:20.494Z,21.60
2019-06-26T03:25:49.140Z,21.70
2019-06-26T03:28:18.060Z,21.70
2019-06-26T03:30:46.759Z,21.80
2019-06-26T03:33:16.016Z,21.80
2019-06-26T03:35:44.674Z,21.80
2019-06-26T03:38:13.658Z,21.90
2019-06-26T03:40:42.641Z,21.90
2019-06-26T03:43:11.332Z,21.90
2019-06-26T03:45:40.017Z,22.00
2019-06-26T03:48:08.765Z,22.10
2019-06-26T03:50:37.441Z,22.10
2019-06-26T03:53:06.457Z,22.10
2019-06-26T03:55:35.544Z,22.20
2019-06-26T03:58:04.278Z,22.30
2019-06-26T04:00:40.510Z,22.40
2019-06-26T04:03:09.558Z,22.50
2019-06-26T04:05:38.872Z,22.60
2019-06-26T04:08:07.825Z,22.70
2019-06-26T04:10:36.962Z,22.70
2019-06-26T04:13:06.223Z,22.90
2019-06-26T04:15:42.200Z,22.90
2019-06-26T04:18:05.504Z,23.00
2019-06-26T04:20:34.258Z,23.10
2019-06-26T04:23:02.999Z,23.30
2019-06-26T04:25:31.671Z,23.30
2019-06-26T04:28:00.387Z,23.40
2019-06-26T04:30:29.044Z,24.20
2019-06-26T04:32:57.827Z,25.80
2019-06-26T04:35:26.627Z,27.40
2019-06-26T04:37:55.281Z,28.20
2019-06-26T04:40:25.211Z,28.50
2019-06-26T04:42:53.886Z,29.30
2019-06-26T04:45:22.562Z,29.30
2019-06-26T04:47:51.254Z,28.50
2019-06-26T04:50:20.850Z,29.10
2019-06-26T04:52:49.595Z,29.80
2019-06-26T04:55:18.333Z,30.20
2019-06-26T04:57:47.655Z,30.60
2019-06-26T05:00:17.359Z,30.80
2019-06-26T05:02:46.041Z,31.00
2019-06-26T05:05:15.930Z,31.40
2019-06-26T05:07:44.963Z,31.80
2019-06-26T05:10:14.451Z,32.00
2019-06-26T05:12:43.124Z,32.30
2019-06-26T05:15:11.989Z,32.40
2019-06-26T05:17:40.707Z,32.80
2019-06-26T05:20:09.928Z,33.00
2019-06-26T05:22:38.880Z,32.70
2019-06-26T05:25:07.830Z,33.10
2019-06-26T05:27:36.827Z,33.20
2019-06-26T05:30:06.611Z,33.70
2019-06-26T05:32:35.588Z,33.80
2019-06-26T05:35:04.887Z,33.60
2019-06-26T05:37:33.513Z,33.80
2019-06-26T05:40:02.166Z,34.60
2019-06-26T05:42:31.113Z,34.90
2019-06-26T05:44:59.799Z,34.30
2019-06-26T05:47:28.440Z,33.90
2019-06-26T05:49:57.258Z,33.90
2019-06-26T05:52:25.930Z,34.30
2019-06-26T05:54:54.614Z,34.40
2019-06-26T05:57:23.320Z,34.50
2019-06-26T05:59:52.306Z,34.50
2019-06-26T06:02:21.044Z,34.60
2019-06-26T06:04:50.076Z,34.70
2019-06-26T06:07:18.780Z,34.90
2019-06-26T06:09:47.565Z,34.70
2019-06-26T06:12:16.231Z,34.80
2019-06-26T06:14:45.246Z,35.20
2019-06-26T06:17:13.913Z,35.30
2019-06-26T06:19:42.916Z,35.20
2019-06-26T06:22:11.567Z,35.50
2019-06-26T06:24:40.211Z,35.30
2019-06-26T06:27:08.857Z,35.50
2019-06-26T06:29:37.624Z,36.00
2019-06-26T06:32:06.657Z,35.90
2019-06-26T06:34:35.351Z,36.20
2019-06-26T06:37:03.975Z,36.50
2019-06-26T06:39:32.660Z,36.50
2019-06-26T06:42:01.585Z,36.40
2019-06-26T06:44:30.444Z,36.70
2019-06-26T06:47:03.709Z,36.70
2019-06-26T06:49:29.679Z,37.00
2019-06-26T06:51:58.623Z,37.60
2019-06-26T06:54:27.339Z,37.50
2019-06-26T06:56:56.014Z,37.80
2019-06-26T06:59:24.814Z,37.80
2019-06-26T07:01:53.860Z,37.70
2019-06-26T07:04:23.358Z,37.50
2019-06-26T07:06:52.128Z,37.20
2019-06-26T07:09:20.853Z,37.70
2019-06-26T07:11:49.575Z,37.40
2019-06-26T07:14:18.212Z,37.70
2019-06-26T07:16:46.917Z,38.20
2019-06-26T07:19:15.553Z,38.10
2019-06-26T07:21:44.311Z,37.90
2019-06-26T07:24:19.618Z,37.90
2019-06-26T07:26:48.564Z,38.00
2019-06-26T07:29:18.384Z,38.30
2019-06-26T07:31:47.427Z,38.50
2019-06-26T07:34:16.183Z,38.50
2019-06-26T07:36:48.408Z,38.90
2019-06-26T07:39:17.127Z,39.00
2019-06-26T07:42:00.244Z,39.10
2019-06-26T07:44:29.002Z,39.20
2019-06-26T07:46:57.736Z,39.30
2019-06-26T07:49:32.343Z,39.40
2019-06-26T07:52:01.037Z,39.10
2019-06-26T07:54:29.989Z,39.40
2019-06-26T07:57:02.725Z,39.90
2019-06-26T07:59:31.494Z,39.60
2019-06-26T08:02:00.645Z,39.60
2019-06-26T08:04:29.968Z,40.10
2019-06-26T08:06:59.205Z,39.70
2019-06-26T08:09:29.890Z,40.00
2019-06-26T08:11:59.231Z,40.10
2019-06-26T08:14:27.978Z,40.50
2019-06-26T08:16:56.674Z,40.70
2019-06-26T08:19:25.423Z,40.60
2019-06-26T08:21:54.443Z,40.60
2019-06-26T08:24:23.394Z,40.60
2019-06-26T08:26:52.054Z,40.50
2019-06-26T08:29:20.741Z,40.60
2019-06-26T08:31:49.461Z,40.70
2019-06-26T08:34:20.866Z,41.10
2019-06-26T08:36:49.568Z,40.80
2019-06-26T08:39:18.468Z,40.80
2019-06-26T08:41:47.150Z,40.90
2019-06-26T08:44:15.842Z,40.90
2019-06-26T08:46:44.523Z,40.50
2019-06-26T08:49:24.827Z,40.60
2019-06-26T08:51:44.096Z,40.90
2019-06-26T08:54:13.182Z,40.90
2019-06-26T08:56:43.871Z,41.10
2019-06-26T08:59:12.550Z,41.40
2019-06-26T09:01:41.294Z,40.90
2019-06-26T09:04:10.628Z,40.60
2019-06-26T09:06:39.421Z,40.70
2019-06-26T09:09:08.462Z,40.60
2019-06-26T09:11:37.513Z,40.70
2019-06-26T09:14:06.692Z,40.70
2019-06-26T09:16:35.691Z,40.80
2019-06-26T09:19:04.541Z,41.20
2019-06-26T09:21:33.643Z,41.40
2019-06-26T09:24:02.471Z,41.40
2019-06-26T09:26:31.407Z,41.70
2019-06-26T09:29:00.147Z,41.10
2019-06-26T09:31:29.192Z,40.90
2019-06-26T09:33:57.988Z,40.70
2019-06-26T09:36:26.881Z,41.10
2019-06-26T09:38:57.866Z,41.20
2019-06-26T09:41:26.043Z,41.50
2019-06-26T09:43:54.726Z,41.30
2019-06-26T09:46:24.182Z,41.70
2019-06-26T09:48:53.659Z,41.20
2019-06-26T09:51:22.855Z,41.50
2019-06-26T09:53:51.562Z,41.10
2019-06-26T09:56:20.259Z,41.20
2019-06-26T09:58:48.899Z,41.00
2019-06-26T10:01:17.669Z,41.30
2019-06-26T10:03:46.636Z,41.40
2019-06-26T10:06:15.285Z,41.40
2019-06-26T10:08:44.248Z,41.40
2019-06-26T10:11:12.961Z,41.10
2019-06-26T10:13:41.703Z,40.90
2019-06-26T10:16:10.439Z,41.30
2019-06-26T10:18:39.127Z,41.50
2019-06-26T10:21:07.822Z,41.60
2019-06-26T10:23:36.606Z,41.80
2019-06-26T10:26:05.554Z,41.70
2019-06-26T10:28:34.347Z,41.90
2019-06-26T10:31:03.099Z,41.70
2019-06-26T10:33:32.093Z,41.90
2019-06-26T10:36:00.749Z,41.60
2019-06-26T10:38:29.567Z,41.10
2019-06-26T10:40:58.281Z,41.00
2019-06-26T10:43:27.176Z,40.70
2019-06-26T10:45:55.827Z,41.10
2019-06-26T10:48:24.782Z,40.70
2019-06-26T10:50:58.526Z,40.20
2019-06-26T10:53:24.563Z,39.40
2019-06-26T10:55:53.231Z,39.60
2019-06-26T10:58:21.908Z,39.90
2019-06-26T11:00:50.799Z,40.40
2019-06-26T11:03:19.447Z,40.60
2019-06-26T11:05:48.204Z,40.50
2019-06-26T11:08:17.367Z,40.30
2019-06-26T11:10:46.082Z,40.30
2019-06-26T11:13:14.787Z,40.40
2019-06-26T11:15:43.520Z,40.40
2019-06-26T11:18:12.175Z,40.50
2019-06-26T11:20:41.067Z,40.10
2019-06-26T11:23:09.715Z,39.60
2019-06-26T11:25:38.376Z,39.60
2019-06-26T11:28:07.454Z,40.20
2019-06-26T11:30:36.154Z,40.40
2019-06-26T11:33:04.956Z,40.30
2019-06-26T11:35:33.871Z,40.20
2019-06-26T11:38:02.561Z,39.80
2019-06-26T11:40:31.242Z,39.90
2019-06-26T11:42:59.929Z,40.00
2019-06-26T11:45:28.630Z,40.20
2019-06-26T11:47:57.354Z,39.70
2019-06-26T11:50:26.403Z,39.60
2019-06-26T11:52:55.124Z,39.20
2019-06-26T11:55:24.123Z,39.30
2019-06-26T11:57:58.625Z,39.10
2019-06-26T12:00:27.802Z,39.00
2019-06-26T12:02:56.505Z,39.00
2019-06-26T12:05:25.761Z,38.70
2019-06-26T12:07:54.599Z,38.20
2019-06-26T12:10:23.938Z,38.20
2019-06-26T12:12:52.579Z,38.00
2019-06-26T12:15:22.292Z,38.00
2019-06-26T12:17:51.162Z,37.90
2019-06-26T12:20:20.854Z,37.50
2019-06-26T12:22:49.925Z,37.50
2019-06-26T12:25:18.775Z,37.50
2019-06-26T12:27:47.486Z,38.00
2019-06-26T12:30:16.276Z,38.60
2019-06-26T12:33:01.489Z,38.80
2019-06-26T12:35:15.371Z,38.80
2019-06-26T12:37:44.258Z,38.60
2019-06-26T12:40:13.946Z,38.50
2019-06-26T12:42:42.619Z,38.40
2019-06-26T12:45:11.331Z,38.60
2019-06-26T12:47:39.996Z,38.50
2019-06-26T12:50:12.092Z,37.70
2019-06-26T12:52:40.827Z,37.50
2019-06-26T12:55:09.659Z,37.70
2019-06-26T12:57:38.324Z,38.30
2019-06-26T13:00:07.881Z,38.90
2019-06-26T13:02:36.752Z,39.30
2019-06-26T13:05:05.869Z,39.40
2019-06-26T13:07:34.510Z,38.80
2019-06-26T13:10:07.125Z,38.10
2019-06-26T13:12:33.663Z,38.00
2019-06-26T13:15:02.370Z,37.90
2019-06-26T13:17:31.340Z,38.30
2019-06-26T13:19:59.996Z,38.60
2019-06-26T13:22:28.701Z,38.40
2019-06-26T13:24:57.771Z,38.30
2019-06-26T13:27:26.591Z,38.50
2019-06-26T13:29:55.530Z,38.40
2019-06-26T13:32:24.198Z,38.50
2019-06-26T13:34:52.859Z,38.30
2019-06-26T13:37:21.546Z,38.50
2019-06-26T13:39:50.206Z,38.40
2019-06-26T13:42:18.893Z,38.10
2019-06-26T13:44:47.551Z,37.50
2019-06-26T13:47:16.195Z,37.30
2019-06-26T13:49:44.843Z,37.40
2019-06-26T13:52:13.524Z,37.70
2019-06-26T13:54:42.202Z,37.70
2019-06-26T13:57:10.920Z,37.80
2019-06-26T13:59:40.284Z,37.90
2019-06-26T14:02:09.072Z,37.70
2019-06-26T14:04:37.739Z,37.70
2019-06-26T14:07:08.661Z,37.60
2019-06-26T14:09:37.263Z,37.30
2019-06-26T14:12:05.974Z,37.20
2019-06-26T14:14:52.773Z,37.10
2019-06-26T14:17:05.305Z,36.90
2019-06-26T14:19:33.935Z,36.90
2019-06-26T14:22:02.667Z,36.90
2019-06-26T14:24:31.308Z,37.00
2019-06-26T14:27:00.008Z,36.90
2019-06-26T14:29:28.645Z,36.80
2019-06-26T14:31:57.280Z,36.80
2019-06-26T14:34:27.948Z,36.90
2019-06-26T14:36:56.758Z,36.60
2019-06-26T14:39:25.716Z,36.40
2019-06-26T14:41:54.380Z,36.70
2019-06-26T14:44:23.337Z,37.00
2019-06-26T14:46:52.281Z,37.00
2019-06-26T14:49:20.976Z,36.80
2019-06-26T14:51:50.467Z,36.60
2019-06-26T14:54:19.119Z,36.70
2019-06-26T14:56:47.816Z,36.70
2019-06-26T14:59:16.472Z,36.70
2019-06-26T15:01:45.371Z,36.60
2019-06-26T15:04:14.116Z,36.50
2019-06-26T15:06:42.807Z,36.40
2019-06-26T15:09:11.801Z,36.50
2019-06-26T15:11:40.503Z,36.30
2019-06-26T15:14:09.504Z,36.00
2019-06-26T15:16:38.470Z,36.10
2019-06-26T15:19:07.096Z,36.20
2019-06-26T15:21:35.792Z,36.20
2019-06-26T15:24:04.539Z,36.20
2019-06-26T15:26:33.560Z,36.30
2019-06-26T15:29:02.258Z,36.30
2019-06-26T15:31:30.950Z,36.20
2019-06-26T15:33:59.590Z,36.20
2019-06-26T15:36:28.494Z,36.20
2019-06-26T15:38:59.246Z,36.10
2019-06-26T15:41:27.531Z,36.00
2019-06-26T15:43:56.180Z,36.10
2019-06-26T15:46:24.883Z,36.10
2019-06-26T15:49:12.863Z,36.10
2019-06-26T15:51:41.903Z,36.10
2019-06-26T15:54:10.592Z,35.80
2019-06-26T15:56:39.318Z,35.60
2019-06-26T15:59:08.447Z,35.80
2019-06-26T16:01:37.158Z,35.60
2019-06-26T16:04:05.800Z,35.10
2019-06-26T16:06:34.483Z,35.10
2019-06-26T16:09:03.643Z,35.20
2019-06-26T16:11:32.808Z,35.20
2019-06-26T16:14:01.488Z,35.00
2019-06-26T16:16:30.809Z,34.70
2019-06-26T16:19:04.350Z,34.60
2019-06-26T16:21:33.307Z,34.60
2019-06-26T16:24:01.966Z,34.70
2019-06-26T16:26:30.921Z,34.70
2019-06-26T16:28:59.615Z,34.60
2019-06-26T16:31:28.503Z,34.60
2019-06-26T16:33:57.239Z,34.60
2019-06-26T16:36:25.928Z,34.50
2019-06-26T16:38:54.561Z,34.50
2019-06-26T16:41:23.725Z,34.40
2019-06-26T16:43:52.391Z,34.40
2019-06-26T16:46:21.036Z,34.30
2019-06-26T16:48:50.200Z,34.40
2019-06-26T16:51:18.880Z,34.30
2019-06-26T16:53:47.522Z,34.20
2019-06-26T16:56:16.179Z,34.30
2019-06-26T16:58:45.088Z,34.10
2019-06-26T17:01:13.764Z,34.00
2019-06-26T17:03:42.416Z,34.00
2019-06-26T17:06:11.064Z,33.90
2019-06-26T17:08:40.010Z,33.90
2019-06-26T17:11:08.671Z,33.70
2019-06-26T17:13:37.310Z,33.50
2019-06-26T17:16:06.325Z,33.40
2019-06-26T17:18:34.965Z,33.20
2019-06-26T17:21:03.697Z,33.20
2019-06-26T17:23:32.528Z,33.10
2019-06-26T17:26:01.195Z,33.10
2019-06-26T17:28:29.839Z,33.00
2019-06-26T17:30:58.766Z,32.90
2019-06-26T17:33:27.819Z,32.80
2019-06-26T17:35:56.494Z,32.70
2019-06-26T17:38:25.392Z,32.50
2019-06-26T17:40:54.033Z,32.40
2019-06-26T17:43:22.940Z,32.40
2019-06-26T17:45:51.584Z,32.30
2019-06-26T17:48:20.231Z,32.10
2019-06-26T17:50:48.901Z,32.20
2019-06-26T17:53:22.069Z,32.10
2019-06-26T17:55:48.276Z,32.10
2019-06-26T17:58:16.921Z,32.00
2019-06-26T18:00:45.577Z,31.90
2019-06-26T18:03:14.242Z,31.80
2019-06-26T18:05:42.911Z,31.80
2019-06-26T18:08:11.575Z,31.60
2019-06-26T18:10:40.240Z,31.60
2019-06-26T18:13:08.922Z,31.50
2019-06-26T18:15:37.609Z,31.40
2019-06-26T18:18:06.616Z,31.40
2019-06-26T18:20:35.426Z,31.30
2019-06-26T18:23:07.511Z,31.20
2019-06-26T18:25:34.831Z,31.10
2019-06-26T18:28:03.567Z,31.00
2019-06-26T18:30:32.556Z,30.90
2019-06-26T18:33:01.231Z,30.80
2019-06-26T18:35:30.079Z,30.70
2019-06-26T18:37:59.067Z,30.60
2019-06-26T18:40:27.719Z,30.60
2019-06-26T18:42:56.387Z,30.40
2019-06-26T18:45:25.175Z,30.30
2019-06-26T18:47:53.831Z,30.30
2019-06-26T18:50:22.495Z,30.20
2019-06-26T18:52:55.029Z,30.10
2019-06-26T18:55:23.937Z,30.00
2019-06-26T18:57:52.663Z,29.80
2019-06-26T19:00:21.491Z,29.80
2019-06-26T19:02:50.164Z,29.70
2019-06-26T19:05:18.895Z,29.60
2019-06-26T19:07:47.854Z,29.50
2019-06-26T19:10:16.600Z,29.40
2019-06-26T19:12:45.267Z,29.40
2019-06-26T19:15:14.076Z,29.30
2019-06-26T19:17:42.911Z,29.20
2019-06-26T19:20:12.247Z,29.10
2019-06-26T19:22:40.909Z,29.00
2019-06-26T19:25:10.679Z,29.00
2019-06-26T19:27:39.436Z,28.90
2019-06-26T19:30:08.966Z,28.80
2019-06-26T19:32:37.733Z,28.70
2019-06-26T19:35:18.151Z,28.60
2019-06-26T19:37:37.684Z,28.50
2019-06-26T19:40:08.646Z,28.30
2019-06-26T19:42:37.138Z,28.30
2019-06-26T19:45:08.014Z,28.30
2019-06-26T19:47:36.920Z,28.20
2019-06-26T19:50:06.011Z,28.10
2019-06-26T19:52:34.673Z,28.00
2019-06-26T19:55:03.495Z,27.90
2019-06-26T19:57:32.523Z,27.90
2019-06-26T20:00:01.280Z,27.70
2019-06-26T20:02:30.000Z,27.60
2019-06-26T20:04:58.735Z,27.60
2019-06-26T20:07:27.771Z,27.50
2019-06-26T20:09:56.495Z,27.50
2019-06-26T20:12:25.374Z,27.40
2019-06-26T20:14:54.106Z,27.30
2019-06-26T20:17:22.805Z,27.20
2019-06-26T20:19:51.866Z,27.10
2019-06-26T20:22:20.583Z,27.00
2019-06-26T20:24:57.388Z,27.00
2019-06-26T20:27:25.730Z,27.00
2019-06-26T20:29:54.503Z,26.90
2019-06-26T20:32:23.675Z,26.80
2019-06-26T20:34:52.429Z,26.80
2019-06-26T20:37:21.079Z,26.70
2019-06-26T20:39:49.750Z,26.60
2019-06-26T20:42:18.454Z,26.60
2019-06-26T20:44:47.132Z,26.50
2019-06-26T20:47:15.823Z,26.50
2019-06-26T20:49:53.046Z,26.40
2019-06-26T20:52:15.321Z,26.40
2019-06-26T20:54:56.825Z,26.40
2019-06-26T20:57:14.417Z,26.30
2019-06-26T20:59:43.220Z,26.20
2019-06-26T21:02:12.114Z,26.20
2019-06-26T21:04:41.058Z,26.20
2019-06-26T21:07:09.727Z,26.10
2019-06-26T21:09:38.760Z,26.00
2019-06-26T21:12:07.642Z,26.00
2019-06-26T21:14:36.298Z,25.90
2019-06-26T21:17:05.250Z,25.80
2019-06-26T21:19:33.959Z,25.80
2019-06-26T21:22:02.911Z,25.80
2019-06-26T21:24:31.867Z,25.70
2019-06-26T21:27:00.515Z,25.70
2019-06-26T21:29:32.351Z,25.60
2019-06-26T21:32:01.289Z,25.50
2019-06-26T21:34:29.967Z,25.50
2019-06-26T21:36:58.714Z,25.40
2019-06-26T21:39:27.535Z,25.30
2019-06-26T21:41:56.578Z,25.30
2019-06-26T21:44:25.442Z,25.20
2019-06-26T21:46:54.119Z,25.10
2019-06-26T21:49:23.013Z,25.10
2019-06-26T21:55:33.626Z,25.00
2019-06-26T21:57:52.052Z,24.90
2019-06-26T22:00:21.779Z,24.80
2019-06-26T22:02:50.525Z,24.80
2019-06-26T22:05:19.723Z,24.80
2019-06-26T22:07:48.745Z,24.60
2019-06-26T22:10:17.537Z,24.60
2019-06-26T22:12:46.819Z,24.50
2019-06-26T22:15:16.180Z,24.40
2019-06-26T22:17:45.188Z,24.40
2019-06-26T22:20:16.039Z,24.30
2019-06-26T22:22:44.987Z,24.30
2019-06-26T22:25:14.504Z,24.20
2019-06-26T22:27:43.150Z,24.10
2019-06-26T22:30:12.211Z,24.10
2019-06-26T22:32:41.044Z,24.00
2019-06-26T22:35:10.202Z,24.00
2019-06-26T22:37:38.908Z,23.90
2019-06-26T22:40:07.658Z,23.80
2019-06-26T22:42:36.724Z,23.80
2019-06-26T22:45:05.650Z,23.70
2019-06-26T22:47:34.300Z,23.60
2019-06-26T22:50:03.039Z,23.50
2019-06-26T22:52:31.875Z,23.40
2019-06-26T22:55:00.612Z,23.40
2019-06-26T22:57:29.288Z,23.30
2019-06-26T22:59:58.461Z,23.20
2019-06-26T23:02:27.247Z,23.20
2019-06-26T23:04:56.164Z,23.10
2019-06-26T23:07:24.866Z,23.10
2019-06-26T23:09:56.831Z,23.00
2019-06-26T23:12:25.563Z,22.90
2019-06-26T23:14:54.607Z,22.80
2019-06-26T23:17:23.299Z,22.80
2019-06-26T23:19:52.050Z,22.60
2019-06-26T23:22:20.979Z,22.50
2019-06-26T23:24:49.639Z,22.40
2019-06-26T23:27:18.294Z,22.40
2019-06-26T23:29:46.997Z,22.30
2019-06-26T23:32:15.717Z,22.20
2019-06-26T23:34:44.420Z,22.20
2019-06-26T23:37:13.248Z,22.20
2019-06-26T23:39:41.896Z,22.00
2019-06-26T23:42:10.552Z,21.90
2019-06-26T23:44:39.231Z,21.80
2019-06-26T23:47:08.280Z,21.80
2019-06-26T23:49:37.171Z,21.70
2019-06-26T23:52:05.839Z,21.60
2019-06-26T23:54:34.484Z,21.50
2019-06-26T23:59:15.571Z,21.30
